Time;durP1;ratioP1;P1;durP2;ratioP2;P2;SDS_P1;SDS_P2;PMS_P1;PMS_P2;Temp;Humidity;BMP_temperature;BMP_pressure;BME280_temperature;BME280_humidity;BME280_pressure;Samples;Min_cycle;Max_cycle;Signal;HPM_P1;HPM_P2
2022/12/08 00:01:56;;;;;;;4.97;1.23;;;2.60;99.90;;;;;;5030946;28;20077;-63
2022/12/08 00:04:22;;;;;;;5.28;1.20;;;2.60;99.90;;;;;;5030300;28;20029;-64
2022/12/08 00:09:33;;;;;;;5.65;1.65;;;2.60;99.90;;;;;;5026888;28;20033;-63
2022/12/08 00:12:08;;;;;;;3.30;0.95;;;2.60;99.90;;;;;;5029181;28;20137;-64
2022/12/08 00:14:39;;;;;;;7.10;1.30;;;2.50;99.90;;;;;;5029146;28;20446;-63
2022/12/08 00:17:06;;;;;;;5.43;1.40;;;2.50;99.90;;;;;;5030542;28;20069;-64
2022/12/08 00:19:32;;;;;;;5.75;1.55;;;2.50;99.90;;;;;;5029138;28;20077;-63
2022/12/08 00:21:58;;;;;;;5.85;1.50;;;2.60;99.90;;;;;;5003886;28;20080;-62
2022/12/08 00:24:29;;;;;;;4.25;1.50;;;2.60;99.90;;;;;;5028872;28;20076;-62
2022/12/08 00:26:54;;;;;;;6.13;1.50;;;2.50;99.90;;;;;;5025921;28;20037;-63
2022/12/08 00:29:20;;;;;;;5.25;1.45;;;2.50;99.90;;;;;;5028552;28;20124;-63
2022/12/08 00:31:46;;;;;;;5.75;1.50;;;2.50;99.90;;;;;;5028850;28;20088;-64
2022/12/08 00:34:15;;;;;;;6.22;1.85;;;2.50;99.90;;;;;;5026843;28;20095;-63
2022/12/08 00:36:41;;;;;;;7.43;1.67;;;2.50;99.90;;;;;;5029128;28;20033;-64
2022/12/08 00:39:07;;;;;;;6.70;1.92;;;2.60;99.90;;;;;;5025965;28;20079;-63
2022/12/08 00:44:18;;;;;;;6.03;2.17;;;2.50;99.90;;;;;;5023664;28;20172;-64
2022/12/08 00:46:45;;;;;;;6.35;2.05;;;2.50;99.90;;;;;;5029195;28;20033;-63
2022/12/08 00:49:14;;;;;;;9.35;2.10;;;2.50;99.90;;;;;;5009426;28;20121;-63
2022/12/08 00:51:40;;;;;;;6.28;2.13;;;2.50;99.90;;;;;;5029364;28;20447;-64
2022/12/08 00:54:06;;;;;;;8.30;1.95;;;2.50;99.90;;;;;;5027409;28;20056;-63
2022/12/08 00:56:33;;;;;;;6.18;2.00;;;2.50;99.90;;;;;;5026234;28;20103;-64
2022/12/08 00:58:59;;;;;;;5.30;2.10;;;2.60;99.90;;;;;;5028593;28;20501;-63
2022/12/08 01:01:25;;;;;;;6.22;2.00;;;2.50;99.90;;;;;;5027735;28;20033;-63
2022/12/08 01:03:50;;;;;;;7.78;2.17;;;2.60;99.90;;;;;;5028155;28;20095;-64
2022/12/08 01:06:16;;;;;;;7.68;2.20;;;2.60;99.90;;;;;;5027753;28;20037;-64
2022/12/08 01:08:42;;;;;;;5.45;2.35;;;2.60;99.90;;;;;;5028368;28;20034;-64
2022/12/08 01:11:14;;;;;;;5.30;2.22;;;2.60;99.90;;;;;;5028194;28;20379;-64
2022/12/08 01:13:41;;;;;;;5.50;2.35;;;2.60;99.90;;;;;;5028122;28;20045;-64
2022/12/08 01:16:07;;;;;;;8.68;2.90;;;2.70;99.90;;;;;;5025503;28;20038;-64
2022/12/08 01:18:33;;;;;;;8.90;2.80;;;2.70;99.90;;;;;;5026948;28;20030;-63
2022/12/08 01:21:06;;;;;;;8.40;2.78;;;2.70;99.90;;;;;;5027280;28;20036;-63
2022/12/08 01:23:33;;;;;;;7.57;3.10;;;2.80;99.90;;;;;;5022211;28;20042;-63
2022/12/08 01:26:03;;;;;;;8.23;3.28;;;2.90;99.90;;;;;;5022513;28;20099;-64
2022/12/08 01:28:30;;;;;;;8.98;3.10;;;2.90;99.90;;;;;;5028393;28;20034;-64
2022/12/08 01:30:56;;;;;;;8.55;2.83;;;2.90;99.90;;;;;;5027775;28;20034;-64
2022/12/08 01:33:22;;;;;;;10.82;3.20;;;2.90;99.90;;;;;;5024444;28;20063;-63
2022/12/08 01:35:48;;;;;;;7.00;2.70;;;2.90;99.90;;;;;;5025399;28;20547;-63
2022/12/08 01:38:13;;;;;;;7.40;3.20;;;2.90;99.90;;;;;;5027896;28;20046;-63
2022/12/08 01:40:39;;;;;;;10.00;3.33;;;2.90;99.90;;;;;;5027638;28;20044;-62
2022/12/08 01:43:04;;;;;;;5.25;3.15;;;3.00;99.90;;;;;;5027710;28;20503;-62
2022/12/08 01:45:31;;;;;;;5.20;2.88;;;3.00;99.90;;;;;;5029184;28;20042;-63
2022/12/08 01:48:02;;;;;;;8.48;3.00;;;3.00;99.90;;;;;;5031599;28;20042;-62
2022/12/08 01:50:29;;;;;;;8.45;2.95;;;3.00;99.90;;;;;;5030151;28;20034;-62
2022/12/08 01:53:00;;;;;;;7.30;2.88;;;3.00;99.90;;;;;;5030149;28;20099;-62
2022/12/08 01:55:34;;;;;;;5.03;2.60;;;3.10;99.90;;;;;;5026419;28;20059;-62
2022/12/08 01:58:07;;;;;;;7.95;2.85;;;3.00;99.90;;;;;;5033221;28;20041;-63
2022/12/08 02:00:32;;;;;;;9.30;2.60;;;3.00;99.90;;;;;;5029431;28;20441;-63
2022/12/08 02:03:00;;;;;;;6.03;2.70;;;3.00;99.90;;;;;;5032465;28;20038;-62
2022/12/08 02:05:32;;;;;;;8.10;2.38;;;3.00;99.90;;;;;;5029311;28;20038;-63
2022/12/08 02:08:00;;;;;;;5.78;2.30;;;3.00;99.90;;;;;;5031211;28;20396;-62
2022/12/08 02:10:29;;;;;;;9.55;2.60;;;3.10;99.90;;;;;;5030102;28;20045;-63
2022/12/08 02:12:57;;;;;;;6.93;2.70;;;3.10;99.90;;;;;;5031505;28;20045;-63
2022/12/08 02:15:32;;;;;;;6.05;2.50;;;3.20;99.90;;;;;;5029727;28;20053;-63
2022/12/08 02:18:20;;;;;;;8.63;2.60;;;3.20;99.90;;;;;;5031283;28;20172;-63
2022/12/08 02:21:00;;;;;;;7.50;2.40;;;3.20;99.90;;;;;;5031199;28;20041;-62
2022/12/08 02:23:34;;;;;;;4.20;2.42;;;3.20;99.90;;;;;;5029508;28;20049;-63
2022/12/08 02:26:31;;;;;;;8.85;2.88;;;3.20;99.90;;;;;;5028204;28;20048;-63
2022/12/08 02:29:27;;;;;;;9.05;2.50;;;3.20;99.90;;;;;;5025708;28;20076;-63
2022/12/08 02:31:59;;;;;;;6.00;2.80;;;3.30;99.90;;;;;;5032577;28;20037;-63
2022/12/08 02:34:37;;;;;;;8.63;2.93;;;3.30;99.90;;;;;;5031166;28;20045;-63
2022/12/08 02:37:24;;;;;;;9.65;3.15;;;3.30;99.90;;;;;;5026474;28;20116;-63
2022/12/08 02:40:10;;;;;;;7.53;3.63;;;3.30;99.90;;;;;;5026714;28;20649;-63
2022/12/08 02:42:46;;;;;;;8.80;3.92;;;3.30;99.90;;;;;;5028797;28;20041;-63
2022/12/08 02:45:28;;;;;;;7.32;3.70;;;3.30;99.90;;;;;;5031125;28;20069;-63
2022/12/08 02:47:54;;;;;;;10.45;3.92;;;3.30;99.90;;;;;;5030937;28;20080;-63
2022/12/08 02:50:20;;;;;;;8.30;4.15;;;3.30;99.90;;;;;;5030494;28;20147;-63
2022/12/08 02:52:46;;;;;;;8.35;4.13;;;3.30;99.90;;;;;;5024240;28;20030;-63
2022/12/08 02:55:26;;;;;;;10.68;4.38;;;3.30;99.90;;;;;;5030348;28;20076;-63
2022/12/08 02:58:01;;;;;;;9.95;4.97;;;3.40;99.90;;;;;;5023768;28;20029;-63
2022/12/08 03:00:30;;;;;;;9.93;4.70;;;3.40;99.90;;;;;;5025739;28;20041;-63
2022/12/08 03:03:13;;;;;;;11.05;5.00;;;3.40;99.90;;;;;;5030162;28;20408;-63
2022/12/08 03:05:48;;;;;;;11.55;4.57;;;3.40;99.90;;;;;;5030181;28;20042;-63
2022/12/08 03:08:35;;;;;;;10.10;4.43;;;3.40;99.90;;;;;;5028313;28;20072;-63
2022/12/08 03:11:20;;;;;;;10.10;4.32;;;3.30;99.90;;;;;;5026460;28;20033;-63
2022/12/08 03:13:53;;;;;;;7.88;4.07;;;3.40;99.90;;;;;;5025314;28;20520;-63
2022/12/08 03:16:23;;;;;;;7.45;4.20;;;3.30;99.90;;;;;;5029187;28;20048;-63
2022/12/08 03:18:55;;;;;;;8.85;4.35;;;3.30;99.90;;;;;;5030701;28;20033;-63
2022/12/08 03:21:21;;;;;;;7.03;3.90;;;3.30;99.90;;;;;;5024699;28;20120;-63
2022/12/08 03:23:53;;;;;;;8.18;4.13;;;3.40;99.90;;;;;;5031024;28;20041;-63
2022/12/08 03:26:26;;;;;;;5.55;3.63;;;3.40;99.90;;;;;;5020512;28;20045;-63
2022/12/08 03:28:51;;;;;;;11.85;3.92;;;3.40;99.90;;;;;;5029344;28;20037;-63
2022/12/08 03:31:18;;;;;;;8.57;3.75;;;3.40;99.90;;;;;;5030189;28;20034;-63
2022/12/08 03:33:50;;;;;;;6.97;3.90;;;3.30;99.90;;;;;;5025820;28;20492;-63
2022/12/08 03:36:16;;;;;;;7.35;3.40;;;3.40;99.90;;;;;;5028421;28;20045;-63
2022/12/08 03:38:44;;;;;;;6.70;3.13;;;3.30;99.90;;;;;;5025827;28;20037;-63
2022/12/08 03:41:17;;;;;;;9.35;3.60;;;3.30;99.90;;;;;;5026314;28;20134;-63
2022/12/08 03:43:44;;;;;;;7.53;3.75;;;3.40;99.90;;;;;;5019784;28;20416;-63
2022/12/08 03:46:09;;;;;;;8.82;3.65;;;3.30;99.90;;;;;;5012571;28;20120;-63
2022/12/08 03:48:35;;;;;;;10.55;4.00;;;3.30;99.90;;;;;;5029747;28;20156;-63
2022/12/08 03:51:00;;;;;;;7.30;4.20;;;3.30;99.90;;;;;;5029591;28;20045;-63
2022/12/08 03:53:26;;;;;;;6.40;3.53;;;3.40;99.90;;;;;;5030367;28;20385;-62
2022/12/08 03:55:52;;;;;;;8.15;3.90;;;3.40;99.90;;;;;;5030821;28;20060;-63
2022/12/08 03:58:18;;;;;;;6.63;4.20;;;3.40;99.90;;;;;;5029508;28;20048;-63
2022/12/08 04:00:44;;;;;;;8.40;4.13;;;3.40;99.90;;;;;;5028731;28;20041;-63
2022/12/08 04:03:09;;;;;;;9.95;4.47;;;3.40;99.90;;;;;;5024246;28;20355;-63
2022/12/08 04:05:35;;;;;;;9.20;4.22;;;3.40;99.90;;;;;;5029434;28;20387;-63
2022/12/08 04:08:00;;;;;;;6.50;3.67;;;3.40;99.90;;;;;;5030210;28;20029;-63
2022/12/08 04:10:26;;;;;;;9.48;4.03;;;3.40;99.90;;;;;;5030257;28;20183;-63
2022/12/08 04:12:52;;;;;;;7.35;3.70;;;3.40;99.90;;;;;;5027801;28;20057;-63
2022/12/08 04:15:17;;;;;;;8.15;3.40;;;3.30;99.90;;;;;;5027566;28;20041;-63
2022/12/08 04:17:43;;;;;;;6.50;3.00;;;3.30;99.90;;;;;;5028304;28;20467;-63
2022/12/08 04:20:09;;;;;;;8.40;2.85;;;3.40;99.90;;;;;;5024593;28;20033;-63
2022/12/08 04:22:34;;;;;;;4.35;2.35;;;3.40;99.90;;;;;;5028668;28;20399;-63
2022/12/08 04:25:00;;;;;;;3.63;2.20;;;3.40;99.90;;;;;;5024981;28;20108;-63
2022/12/08 04:27:26;;;;;;;4.00;2.10;;;3.30;99.90;;;;;;5030318;28;20546;-63
2022/12/08 04:29:51;;;;;;;6.32;2.28;;;3.30;99.90;;;;;;5022081;28;20129;-63
2022/12/08 04:32:17;;;;;;;4.90;2.20;;;3.30;99.90;;;;;;5029949;28;20097;-63
2022/12/08 04:34:43;;;;;;;3.60;2.20;;;3.30;99.90;;;;;;5030173;28;20029;-63
2022/12/08 04:37:08;;;;;;;5.63;2.63;;;3.30;99.90;;;;;;5028251;28;20112;-63
2022/12/08 04:39:34;;;;;;;6.28;2.38;;;3.30;99.90;;;;;;5026960;28;20056;-63
2022/12/08 04:41:59;;;;;;;4.53;2.55;;;3.20;99.90;;;;;;5028870;28;20052;-63
2022/12/08 04:44:25;;;;;;;6.28;2.42;;;3.70;99.90;;;;;;5022655;28;20056;-63
2022/12/08 04:46:51;;;;;;;7.13;2.38;;;3.30;99.90;;;;;;5027884;28;20044;-63
2022/12/08 04:49:16;;;;;;;5.53;2.25;;;3.20;99.90;;;;;;5026771;28;20038;-63
2022/12/08 04:51:42;;;;;;;6.78;2.85;;;3.20;99.90;;;;;;5029360;28;20463;-63
2022/12/08 04:54:08;;;;;;;5.15;2.45;;;3.20;99.90;;;;;;5023698;28;20044;-63
2022/12/08 04:56:33;;;;;;;7.18;2.70;;;3.20;99.90;;;;;;5031155;28;20072;-63
2022/12/08 04:58:59;;;;;;;4.65;2.70;;;3.20;99.90;;;;;;5023614;28;20041;-63
2022/12/08 05:01:24;;;;;;;7.88;2.97;;;3.20;99.90;;;;;;5028222;28;20038;-63
2022/12/08 05:03:50;;;;;;;4.20;2.67;;;3.20;99.90;;;;;;5027674;28;20056;-63
2022/12/08 05:06:16;;;;;;;4.20;2.47;;;3.20;99.90;;;;;;5020820;28;20033;-63
2022/12/08 05:08:42;;;;;;;9.50;2.90;;;3.20;99.90;;;;;;5029874;28;20037;-63
2022/12/08 05:11:09;;;;;;;6.22;2.83;;;3.20;99.90;;;;;;5030019;28;20033;-63
2022/12/08 05:13:35;;;;;;;7.78;2.92;;;3.20;99.90;;;;;;5027786;28;20086;-63
2022/12/08 05:16:06;;;;;;;7.32;3.08;;;3.20;99.90;;;;;;5019393;28;20037;-63
2022/12/08 05:18:32;;;;;;;7.65;3.03;;;3.20;99.90;;;;;;5016608;28;20034;-63
2022/12/08 05:20:57;;;;;;;6.57;2.92;;;3.20;99.90;;;;;;5030649;28;20492;-63
2022/12/08 05:23:23;;;;;;;7.55;3.20;;;3.20;99.90;;;;;;5029928;28;20038;-63
2022/12/08 05:25:49;;;;;;;6.15;2.95;;;3.10;99.90;;;;;;5033242;28;20470;-63
2022/12/08 05:28:14;;;;;;;5.75;3.05;;;3.10;99.90;;;;;;5030517;28;20048;-63
2022/12/08 05:30:40;;;;;;;8.05;2.88;;;3.20;99.90;;;;;;5022446;28;20518;-63
2022/12/08 05:33:06;;;;;;;5.65;2.53;;;3.20;99.90;;;;;;5026599;28;20037;-63
2022/12/08 05:35:31;;;;;;;5.18;2.60;;;3.20;99.90;;;;;;5031276;28;20037;-63
2022/12/08 05:37:57;;;;;;;6.88;2.40;;;3.20;99.90;;;;;;5032184;28;20029;-63
2022/12/08 05:40:22;;;;;;;6.32;2.60;;;3.20;99.90;;;;;;5026853;28;20068;-63
2022/12/08 05:42:48;;;;;;;5.20;2.13;;;3.20;99.90;;;;;;5033146;28;20033;-63
2022/12/08 05:45:14;;;;;;;4.25;2.08;;;3.20;99.90;;;;;;5031651;28;20034;-63
2022/12/08 05:47:39;;;;;;;6.50;1.70;;;3.10;99.90;;;;;;5031668;28;20495;-63
2022/12/08 05:50:05;;;;;;;2.97;1.60;;;3.10;99.90;;;;;;5028817;28;20029;-63
2022/12/08 05:52:31;;;;;;;4.18;1.48;;;3.10;99.90;;;;;;5026692;28;20048;-63
2022/12/08 05:54:57;;;;;;;2.38;1.27;;;3.20;99.90;;;;;;5030942;28;20129;-63
2022/12/08 05:57:23;;;;;;;4.40;1.30;;;3.10;99.90;;;;;;5027554;28;20116;-63
2022/12/08 05:59:48;;;;;;;4.55;1.63;;;3.10;99.90;;;;;;5039824;28;20480;-63
2022/12/08 06:02:14;;;;;;;3.13;1.40;;;3.10;99.90;;;;;;5033126;28;20044;-63
2022/12/08 06:04:40;;;;;;;2.85;1.30;;;3.10;99.90;;;;;;5031329;28;20037;-63
2022/12/08 06:07:07;;;;;;;3.20;1.30;;;3.10;99.90;;;;;;5007321;28;20083;-63
2022/12/08 06:09:32;;;;;;;2.78;1.30;;;3.20;99.90;;;;;;5031407;28;20036;-63
2022/12/08 06:11:58;;;;;;;3.33;1.30;;;3.20;99.90;;;;;;5031950;28;20033;-63
2022/12/08 06:14:24;;;;;;;2.47;0.98;;;3.20;99.90;;;;;;5027139;28;20042;-63
2022/12/08 06:16:49;;;;;;;5.50;1.10;;;3.20;99.90;;;;;;5017662;28;20041;-63
2022/12/08 06:19:15;;;;;;;4.88;1.15;;;3.20;99.90;;;;;;5023490;28;20033;-63
2022/12/08 06:21:40;;;;;;;1.83;1.15;;;3.20;99.90;;;;;;5032534;28;20072;-63
2022/12/08 06:24:06;;;;;;;1.60;1.00;;;3.20;99.90;;;;;;5031556;28;20484;-63
2022/12/08 06:26:32;;;;;;;1.58;0.95;;;3.20;99.90;;;;;;5028766;28;20118;-63
2022/12/08 06:28:59;;;;;;;3.65;1.10;;;3.20;99.90;;;;;;5028118;28;20033;-63
2022/12/08 06:31:26;;;;;;;3.97;1.38;;;3.20;99.90;;;;;;5026808;28;20080;-63
2022/12/08 06:33:52;;;;;;;1.75;1.00;;;3.20;99.90;;;;;;5032488;28;20431;-63
2022/12/08 06:36:20;;;;;;;1.58;0.93;;;3.20;99.90;;;;;;5031781;28;20031;-63
2022/12/08 06:38:46;;;;;;;1.50;0.88;;;3.20;99.90;;;;;;5029068;28;20034;-63
2022/12/08 06:41:13;;;;;;;3.38;1.05;;;3.10;99.90;;;;;;5029720;28;20086;-63
2022/12/08 06:43:39;;;;;;;3.55;1.00;;;3.10;99.90;;;;;;5030344;28;20049;-63
2022/12/08 06:46:08;;;;;;;2.40;1.17;;;3.10;99.90;;;;;;5027970;28;20041;-63
2022/12/08 06:48:34;;;;;;;1.48;1.00;;;3.10;99.90;;;;;;5031309;28;20040;-63
2022/12/08 06:51:11;;;;;;;5.47;1.13;;;3.10;99.90;;;;;;5028702;28;20049;-63
2022/12/08 06:53:38;;;;;;;2.85;0.85;;;3.10;99.90;;;;;;5006050;28;20037;-63
2022/12/08 06:56:04;;;;;;;2.65;1.27;;;3.10;99.90;;;;;;5029947;28;20825;-63
2022/12/08 06:58:30;;;;;;;2.25;1.02;;;3.10;99.90;;;;;;5028197;28;20037;-63
2022/12/08 07:00:56;;;;;;;3.38;1.00;;;3.10;99.90;;;;;;5027508;28;20424;-63
2022/12/08 07:03:21;;;;;;;3.33;1.00;;;3.10;99.90;;;;;;5024648;28;20399;-63
2022/12/08 07:05:47;;;;;;;2.92;1.00;;;3.10;99.90;;;;;;5028989;28;20120;-63
2022/12/08 07:08:13;;;;;;;1.17;0.70;;;3.10;99.90;;;;;;5031141;28;20438;-63
2022/12/08 07:10:39;;;;;;;2.10;0.80;;;3.10;99.90;;;;;;5030619;28;20034;-63
2022/12/08 07:13:04;;;;;;;2.08;0.90;;;3.10;99.90;;;;;;5031801;28;20403;-63
2022/12/08 07:15:30;;;;;;;3.58;0.80;;;3.10;99.90;;;;;;5030974;28;20118;-63
2022/12/08 07:17:55;;;;;;;2.20;0.68;;;3.10;99.90;;;;;;5031049;28;20076;-63
2022/12/08 07:20:21;;;;;;;2.58;0.93;;;3.10;99.90;;;;;;5031034;28;20563;-63
2022/12/08 07:22:49;;;;;;;4.47;0.90;;;3.10;99.90;;;;;;5031049;28;20049;-63
2022/12/08 07:25:15;;;;;;;1.92;0.80;;;3.00;99.90;;;;;;5029633;28;20124;-63
2022/12/08 07:27:40;;;;;;;5.13;0.93;;;3.00;99.90;;;;;;5028233;28;20095;-63
2022/12/08 07:30:07;;;;;;;4.95;1.00;;;3.00;99.90;;;;;;5029592;28;20045;-63
2022/12/08 07:32:32;;;;;;;1.67;0.70;;;3.00;99.90;;;;;;5027155;28;20070;-63
2022/12/08 07:34:58;;;;;;;2.03;0.85;;;3.00;99.90;;;;;;5028622;28;20041;-63
2022/12/08 07:37:23;;;;;;;2.25;1.10;;;3.00;99.90;;;;;;5028478;28;20500;-63
2022/12/08 07:39:49;;;;;;;1.85;0.93;;;3.00;99.90;;;;;;5026052;28;20044;-63
2022/12/08 07:42:15;;;;;;;2.97;0.68;;;3.00;99.90;;;;;;5028130;28;20038;-63
2022/12/08 07:44:40;;;;;;;3.17;0.80;;;3.00;99.90;;;;;;5030039;28;20030;-63
2022/12/08 07:47:06;;;;;;;3.10;1.58;;;3.00;99.90;;;;;;5028434;28;20499;-63
2022/12/08 07:49:32;;;;;;;1.50;0.73;;;3.00;99.90;;;;;;5028504;28;20376;-63
2022/12/08 07:51:57;;;;;;;3.88;0.60;;;3.00;99.90;;;;;;5028392;28;20072;-63
2022/12/08 07:54:23;;;;;;;1.98;0.77;;;3.00;99.90;;;;;;5026670;28;20045;-63
2022/12/08 07:56:48;;;;;;;3.58;0.95;;;3.00;99.90;;;;;;5020975;28;20041;-63
2022/12/08 07:59:14;;;;;;;3.35;0.80;;;3.00;99.90;;;;;;5028309;28;20044;-63
2022/12/08 08:01:40;;;;;;;3.90;0.80;;;3.00;99.90;;;;;;5029395;28;20048;-63
2022/12/08 08:04:05;;;;;;;3.67;0.80;;;3.00;99.90;;;;;;5029516;28;20118;-63
2022/12/08 08:06:33;;;;;;;1.45;0.80;;;2.90;99.90;;;;;;5029573;28;20192;-63
2022/12/08 08:08:59;;;;;;;0.77;0.60;;;2.90;99.90;;;;;;5029418;28;20049;-63
2022/12/08 08:11:25;;;;;;;2.17;0.60;;;3.00;99.90;;;;;;5030865;28;20586;-64
2022/12/08 08:13:51;;;;;;;2.78;0.73;;;3.00;99.90;;;;;;5030488;28;20514;-64
2022/12/08 08:16:17;;;;;;;2.78;0.70;;;3.00;99.90;;;;;;5030247;28;20036;-64
2022/12/08 08:18:47;;;;;;;2.63;0.60;;;3.00;99.90;;;;;;5025360;28;20084;-64
2022/12/08 08:21:12;;;;;;;1.33;0.70;;;3.00;99.90;;;;;;5029997;28;20502;-64
2022/12/08 08:23:38;;;;;;;4.43;1.10;;;3.00;99.90;;;;;;5028069;28;20045;-64
2022/12/08 08:26:04;;;;;;;0.95;0.45;;;3.00;99.90;;;;;;5028427;28;20037;-64
2022/12/08 08:28:30;;;;;;;2.08;0.73;;;3.00;99.90;;;;;;5027476;28;20112;-64
2022/12/08 08:30:56;;;;;;;3.25;0.75;;;3.00;99.90;;;;;;5010716;28;20144;-64
2022/12/08 08:33:22;;;;;;;1.73;0.70;;;3.00;99.90;;;;;;5029012;28;20043;-64
2022/12/08 08:35:48;;;;;;;1.50;0.70;;;3.00;99.90;;;;;;5030112;28;20112;-64
2022/12/08 08:38:13;;;;;;;5.22;0.88;;;2.90;99.90;;;;;;5026524;28;20543;-64
2022/12/08 08:40:39;;;;;;;1.48;0.77;;;2.90;99.90;;;;;;5029711;28;20095;-64
2022/12/08 08:43:05;;;;;;;1.65;0.77;;;3.00;99.90;;;;;;5029267;28;20100;-64
2022/12/08 08:45:32;;;;;;;2.28;0.93;;;3.00;99.90;;;;;;5028406;28;20075;-64
2022/12/08 08:47:58;;;;;;;1.63;0.88;;;3.00;99.90;;;;;;5025882;28;20423;-64
2022/12/08 08:50:24;;;;;;;2.63;0.90;;;3.00;99.90;;;;;;5026837;28;20124;-64
2022/12/08 08:52:49;;;;;;;2.08;1.00;;;3.00;99.90;;;;;;5023705;28;20050;-64
2022/12/08 08:55:15;;;;;;;2.80;1.10;;;3.00;99.90;;;;;;5030156;28;20037;-64
2022/12/08 08:57:41;;;;;;;3.67;1.30;;;3.00;99.90;;;;;;5024710;28;20040;-64
2022/12/08 09:00:09;;;;;;;4.18;1.20;;;3.00;99.90;;;;;;5028865;28;20041;-64
2022/12/08 09:02:36;;;;;;;4.07;1.58;;;3.00;99.90;;;;;;5030048;28;20080;-64
2022/12/08 09:05:03;;;;;;;5.20;1.70;;;3.10;99.90;;;;;;5016768;28;20459;-64
2022/12/08 09:07:29;;;;;;;4.35;2.17;;;3.10;99.90;;;;;;5027940;28;20072;-65
2022/12/08 09:09:54;;;;;;;6.35;1.92;;;3.10;99.90;;;;;;5028472;28;20520;-64
2022/12/08 09:12:20;;;;;;;5.22;2.05;;;3.10;99.90;;;;;;5028637;28;20037;-64
2022/12/08 09:14:46;;;;;;;5.35;2.55;;;3.10;99.90;;;;;;5029746;28;20037;-64
2022/12/08 09:17:12;;;;;;;5.00;2.33;;;3.20;99.90;;;;;;5026573;28;20121;-64
2022/12/08 09:19:37;;;;;;;7.95;3.00;;;3.20;99.90;;;;;;5026575;28;20113;-64
2022/12/08 09:22:04;;;;;;;5.95;2.53;;;3.20;99.90;;;;;;5027953;28;20128;-64
2022/12/08 09:24:29;;;;;;;8.27;3.10;;;3.20;99.90;;;;;;5029862;28;20029;-64
2022/12/08 09:26:55;;;;;;;7.35;3.10;;;3.30;99.90;;;;;;5029401;28;20100;-64
2022/12/08 09:29:21;;;;;;;5.95;3.30;;;3.30;99.90;;;;;;5029081;28;20092;-64
2022/12/08 09:31:47;;;;;;;8.98;3.65;;;3.30;99.90;;;;;;5024915;28;20041;-64
2022/12/08 09:34:13;;;;;;;6.68;3.13;;;3.30;99.90;;;;;;5025309;28;20038;-64
2022/12/08 09:36:39;;;;;;;5.53;3.42;;;3.30;99.90;;;;;;5029621;28;20484;-64
2022/12/08 09:39:04;;;;;;;7.20;3.55;;;3.40;99.90;;;;;;5028745;28;20103;-64
2022/12/08 09:41:36;;;;;;;5.43;3.35;;;3.40;99.90;;;;;;5029815;28;20476;-64
2022/12/08 09:44:21;;;;;;;6.97;3.33;;;3.40;99.90;;;;;;5003782;28;20498;-64
2022/12/08 09:46:48;;;;;;;6.53;3.17;;;3.40;99.90;;;;;;5029580;28;20041;-64
2022/12/08 09:49:17;;;;;;;6.43;2.97;;;3.50;99.90;;;;;;5029396;28;20034;-64
2022/12/08 09:51:44;;;;;;;7.15;2.90;;;3.50;99.90;;;;;;5027994;28;20053;-64
2022/12/08 09:54:36;;;;;;;5.82;2.50;;;3.50;99.90;;;;;;5025060;28;20403;-64
2022/12/08 09:57:09;;;;;;;6.28;3.10;;;3.60;99.90;;;;;;5028136;28;20136;-64
2022/12/08 09:59:35;;;;;;;5.53;2.85;;;3.60;99.90;;;;;;5022860;28;20392;-64
2022/12/08 10:02:10;;;;;;;7.00;2.95;;;3.60;99.90;;;;;;5021763;28;20048;-65
2022/12/08 10:04:40;;;;;;;5.05;2.75;;;3.60;99.90;;;;;;5028465;28;20073;-64
2022/12/08 10:07:24;;;;;;;4.78;2.30;;;3.60;99.90;;;;;;5031847;28;20091;-64
2022/12/08 10:10:23;;;;;;;5.20;2.85;;;3.60;99.90;;;;;;5031284;28;20475;-64
2022/12/08 10:13:19;;;;;;;4.35;2.40;;;3.60;99.90;;;;;;5031008;28;20046;-64
2022/12/08 10:15:45;;;;;;;8.75;2.92;;;3.60;99.90;;;;;;5031233;28;20098;-64
2022/12/08 10:18:16;;;;;;;6.18;2.25;;;3.80;99.90;;;;;;5032151;28;20041;-64
2022/12/08 10:20:49;;;;;;;4.55;2.45;;;3.70;99.90;;;;;;5023243;28;20049;-64
2022/12/08 10:23:38;;;;;;;6.90;2.42;;;3.70;99.90;;;;;;5032756;28;20492;-64
2022/12/08 10:26:10;;;;;;;7.80;2.50;;;3.70;99.90;;;;;;5030839;28;20130;-64
2022/12/08 10:28:36;;;;;;;5.05;2.40;;;3.60;99.90;;;;;;5027513;28;20395;-64
2022/12/08 10:31:02;;;;;;;4.05;2.00;;;3.60;99.90;;;;;;5032264;28;20033;-65
2022/12/08 10:33:31;;;;;;;4.43;2.45;;;3.60;99.90;;;;;;5031493;28;20048;-65
2022/12/08 10:36:00;;;;;;;4.75;2.35;;;3.60;99.90;;;;;;5031902;28;20088;-65
2022/12/08 10:38:34;;;;;;;5.95;2.40;;;3.60;99.90;;;;;;5032851;28;20034;-64
2022/12/08 10:41:13;;;;;;;5.43;2.60;;;3.60;99.90;;;;;;5026815;28;20040;-65
2022/12/08 10:43:43;;;;;;;4.65;2.22;;;3.60;99.90;;;;;;5029352;28;20111;-65
2022/12/08 10:46:21;;;;;;;8.07;2.50;;;3.70;99.90;;;;;;5025248;28;20475;-65
2022/12/08 10:48:48;;;;;;;8.23;2.67;;;3.70;99.90;;;;;;5030151;28;20131;-65
2022/12/08 10:51:29;;;;;;;8.13;2.42;;;3.70;99.90;;;;;;5031748;28;20029;-64
2022/12/08 10:53:55;;;;;;;6.63;2.30;;;3.80;99.90;;;;;;5032532;28;20041;-65
2022/12/08 10:56:26;;;;;;;6.68;2.58;;;3.80;99.90;;;;;;5030880;28;20042;-64
2022/12/08 10:59:15;;;;;;;6.55;2.47;;;3.80;99.90;;;;;;5030423;28;20043;-65
2022/12/08 11:01:44;;;;;;;6.80;2.60;;;3.80;99.90;;;;;;5031857;28;20044;-65
2022/12/08 11:04:22;;;;;;;5.57;3.00;;;3.80;99.90;;;;;;5032311;28;20048;-65
2022/12/08 11:06:49;;;;;;;7.75;2.78;;;3.80;99.90;;;;;;5029022;28;20034;-65
2022/12/08 11:09:15;;;;;;;8.57;2.70;;;3.80;99.90;;;;;;5026141;28;20037;-65
2022/12/08 11:11:57;;;;;;;7.07;3.10;;;3.80;99.90;;;;;;5031215;28;20033;-65
2022/12/08 11:14:27;;;;;;;7.38;2.85;;;3.90;99.90;;;;;;5025168;28;20041;-65
2022/12/08 11:17:00;;;;;;;7.60;3.38;;;3.90;99.90;;;;;;5023369;28;20044;-65
2022/12/08 11:19:26;;;;;;;8.18;3.42;;;3.90;99.90;;;;;;5027058;28;20391;-65
2022/12/08 11:21:52;;;;;;;8.13;3.47;;;3.90;99.90;;;;;;5031226;28;20112;-64
2022/12/08 11:24:22;;;;;;;8.98;3.58;;;3.90;99.90;;;;;;5031967;28;20108;-65
2022/12/08 11:27:08;;;;;;;10.50;3.75;;;3.90;99.90;;;;;;5030044;28;20036;-65
2022/12/08 11:29:34;;;;;;;7.60;3.70;;;3.90;99.90;;;;;;5026466;28;20111;-65
2022/12/08 11:32:07;;;;;;;9.98;3.65;;;3.90;99.90;;;;;;5031175;28;20071;-64
2022/12/08 11:34:46;;;;;;;9.32;3.97;;;3.80;99.90;;;;;;5031704;28;20087;-64
2022/12/08 11:37:22;;;;;;;8.30;3.78;;;3.90;99.90;;;;;;5031253;28;20033;-64
2022/12/08 11:39:52;;;;;;;8.23;3.63;;;3.90;99.90;;;;;;5023749;28;20038;-64
2022/12/08 11:42:21;;;;;;;8.10;3.78;;;3.90;99.90;;;;;;5028280;28;20563;-64
2022/12/08 11:44:57;;;;;;;7.03;3.35;;;3.90;99.90;;;;;;5028159;28;20041;-64
2022/12/08 11:47:29;;;;;;;7.32;3.42;;;3.90;99.90;;;;;;5030871;28;20029;-64
2022/12/08 11:50:03;;;;;;;6.90;3.40;;;3.90;99.90;;;;;;5029746;28;20484;-64
2022/12/08 11:52:30;;;;;;;8.45;3.00;;;3.90;99.90;;;;;;5028495;28;20069;-64
2022/12/08 11:55:35;;;;;;;6.45;2.88;;;3.90;99.90;;;;;;5029135;28;20045;-64
2022/12/08 11:58:16;;;;;;;5.88;3.10;;;3.90;99.90;;;;;;5023422;28;20119;-64
2022/12/08 12:00:42;;;;;;;7.03;3.28;;;3.90;99.90;;;;;;5028799;28;20064;-64
2022/12/08 12:03:38;;;;;;;6.97;3.30;;;3.90;99.90;;;;;;5029216;28;20034;-63
2022/12/08 12:06:21;;;;;;;7.18;3.47;;;3.90;99.90;;;;;;5022130;28;20064;-63
2022/12/08 12:09:10;;;;;;;9.55;3.72;;;4.00;99.90;;;;;;5028776;28;20083;-64
2022/12/08 12:14:52;;;;;;;9.30;3.77;;;4.10;99.90;;;;;;5030305;28;20053;-63
2022/12/08 12:17:30;;;;;;;7.90;3.75;;;4.40;99.90;;;;;;5029217;28;20404;-64
2022/12/08 12:20:01;;;;;;;7.63;3.88;;;4.60;99.90;;;;;;5031199;28;20041;-64
2022/12/08 12:22:33;;;;;;;7.53;3.30;;;4.90;99.90;;;;;;5026726;28;20029;-64
2022/12/08 12:24:59;;;;;;;5.80;2.90;;;5.10;99.90;;;;;;5021969;28;20487;-64
2022/12/08 12:27:36;;;;;;;5.10;2.90;;;5.30;99.90;;;;;;5025723;28;20121;-65
2022/12/08 12:30:06;;;;;;;6.97;3.08;;;5.20;99.90;;;;;;5022757;28;20361;-63
2022/12/08 12:33:07;;;;;;;7.43;3.08;;;5.20;99.90;;;;;;5021872;28;20052;-63
2022/12/08 12:35:41;;;;;;;5.70;2.72;;;5.40;99.90;;;;;;5038526;28;20053;-63
2022/12/08 12:41:11;;;;;;;5.60;2.78;;;5.10;99.90;;;;;;5022986;28;20057;-64
2022/12/08 12:43:37;;;;;;;4.15;2.40;;;5.00;99.90;;;;;;5030772;28;20037;-64
2022/12/08 12:46:26;;;;;;;4.45;2.75;;;5.10;99.90;;;;;;5027436;28;20088;-64
2022/12/08 12:48:52;;;;;;;4.75;2.42;;;5.30;99.90;;;;;;5001168;28;20045;-64
2022/12/08 12:51:36;;;;;;;6.28;2.30;;;5.70;99.90;;;;;;5029465;28;20063;-65
2022/12/08 12:54:28;;;;;;;3.88;1.88;;;6.00;99.90;;;;;;5024780;28;20480;-64
2022/12/08 12:56:55;;;;;;;7.68;2.40;;;6.30;99.90;;;;;;4996398;28;20549;-64
2022/12/08 12:59:52;;;;;;;4.50;2.30;;;6.60;99.90;;;;;;5030692;28;20069;-64
2022/12/08 13:02:37;;;;;;;8.52;2.40;;;6.50;99.90;;;;;;5020865;28;20052;-63
2022/12/08 13:05:19;;;;;;;3.85;1.92;;;6.20;99.90;;;;;;5027660;28;20602;-64
2022/12/08 13:07:45;;;;;;;;;;;5.80;99.90;;;;;;5029315;28;20314;-63
2022/12/08 13:10:30;;;;;;;7.28;2.28;;;5.60;99.90;;;;;;5028132;28;19963;-63
2022/12/08 13:13:04;;;;;;;4.65;2.00;;;5.40;99.90;;;;;;5029688;28;20119;-63
2022/12/08 13:15:37;;;;;;;4.85;2.38;;;5.20;99.90;;;;;;5030299;28;20132;-64
2022/12/08 13:18:04;;;;;;;7.72;2.40;;;5.10;99.90;;;;;;5022639;28;20041;-63
2022/12/08 13:20:35;;;;;;;5.70;2.28;;;4.90;99.90;;;;;;5030042;28;20038;-64
2022/12/08 13:23:35;;;;;;;4.18;2.30;;;4.80;99.90;;;;;;5030442;28;20042;-64